createdAt,value
2023-02-27T00:00:54.550Z,95969.09
2023-02-27T00:03:27.252Z,95965.85
2023-02-27T00:05:55.813Z,95964.16
2023-02-27T00:08:23.790Z,95958.81
2023-02-27T00:10:50.722Z,95956.73
2023-02-27T00:13:17.775Z,95950.52
2023-02-27T00:15:46.273Z,95948.54
2023-02-27T00:18:13.221Z,95953.41
2023-02-27T00:20:40.086Z,95960.90
2023-02-27T00:23:08.887Z,95957.42
2023-02-27T00:25:36.415Z,95953.36
2023-02-27T00:28:04.462Z,95948.68
2023-02-27T00:30:32.242Z,95949.04
2023-02-27T00:32:58.955Z,95948.45
2023-02-27T00:35:26.016Z,95951.04
2023-02-27T00:37:53.059Z,95950.65
2023-02-27T00:40:20.235Z,95953.29
2023-02-27T00:42:48.912Z,95951.52
2023-02-27T00:45:15.836Z,95954.16
2023-02-27T00:47:42.984Z,95959.45
2023-02-27T00:50:10.668Z,95958.70
2023-02-27T00:52:37.488Z,95960.18
2023-02-27T00:55:05.353Z,95957.39
2023-02-27T00:57:32.743Z,95951.34
2023-02-27T00:59:59.460Z,95949.29
2023-02-27T01:02:26.325Z,95956.83
2023-02-27T01:04:55.701Z,95954.27
2023-02-27T01:07:24.083Z,95957.34
2023-02-27T01:09:50.727Z,95961.39
2023-02-27T01:12:17.456Z,95959.52
2023-02-27T01:14:44.198Z,95960.42
2023-02-27T01:17:11.768Z,95959.37
2023-02-27T01:19:38.498Z,95959.16
2023-02-27T01:22:06.064Z,95957.45
2023-02-27T01:24:33.117Z,95958.67
2023-02-27T01:26:59.998Z,95959.23
2023-02-27T01:29:26.565Z,95958.77
2023-02-27T01:31:53.427Z,95960.95
2023-02-27T01:34:20.480Z,95959.77
2023-02-27T01:36:47.226Z,95962.42
2023-02-27T01:39:17.451Z,95957.25
2023-02-27T01:41:44.091Z,95958.96
2023-02-27T01:44:12.672Z,95958.02
2023-02-27T01:46:40.440Z,95960.98
2023-02-27T01:49:21.212Z,95954.91
2023-02-27T01:51:53.381Z,95949.61
2023-02-27T01:54:25.549Z,95947.92
2023-02-27T01:56:52.487Z,95947.35
2023-02-27T01:59:20.980Z,95946.42
2023-02-27T02:01:50.987Z,95953.67
2023-02-27T02:04:26.491Z,95953.27
2023-02-27T02:07:02.713Z,95956.14
2023-02-27T02:09:31.996Z,95957.83
2023-02-27T02:11:59.932Z,95958.77
2023-02-27T02:14:27.216Z,95958.69
2023-02-27T02:17:43.620Z,95964.32
2023-02-27T02:20:45.176Z,95968.84
2023-02-27T02:23:41.930Z,95971.70
2023-02-27T02:26:11.225Z,95972.13
2023-02-27T02:29:11.747Z,95973.27
2023-02-27T02:32:12.817Z,95980.66
2023-02-27T02:34:54.915Z,95983.93
2023-02-27T02:37:49.802Z,95989.55
2023-02-27T02:40:45.313Z,95991.49
2023-02-27T02:43:25.275Z,95995.28
2023-02-27T02:46:17.673Z,95993.44
2023-02-27T02:48:52.645Z,95989.38
2023-02-27T02:51:38.032Z,95994.67
2023-02-27T02:54:16.491Z,95993.16
2023-02-27T02:56:54.658Z,95995.48
2023-02-27T02:59:41.149Z,96000.39
2023-02-27T03:02:19.107Z,96002.04
2023-02-27T03:05:01.060Z,96004.56
2023-02-27T03:07:43.727Z,96007.90
2023-02-27T03:10:28.126Z,96012.91
2023-02-27T03:13:17.492Z,96014.06
2023-02-27T03:15:49.202Z,96016.52
2023-02-27T03:18:21.933Z,96019.21
2023-02-27T03:20:55.422Z,96023.50
2023-02-27T03:23:33.035Z,96021.59
2023-02-27T03:26:00.576Z,96024.23
2023-02-27T03:28:31.952Z,96030.88
2023-02-27T03:31:17.091Z,96029.52
2023-02-27T03:33:54.888Z,96030.67
2023-02-27T03:36:36.477Z,96031.86
2023-02-27T03:39:29.226Z,96033.39
2023-02-27T03:42:17.486Z,96033.55
2023-02-27T03:45:07.324Z,96041.02
2023-02-27T03:47:35.234Z,96035.62
2023-02-27T03:50:02.855Z,96037.02
2023-02-27T03:52:30.143Z,96042.23
2023-02-27T03:55:02.004Z,96045.05
2023-02-27T03:57:30.170Z,96044.70
2023-02-27T03:59:58.151Z,96045.65
2023-02-27T04:02:26.460Z,96051.77
2023-02-27T04:04:53.668Z,96054.72
2023-02-27T04:07:55.338Z,96056.49
2023-02-27T04:10:43.894Z,96067.35
2023-02-27T04:13:22.612Z,96065.82
2023-02-27T04:16:19.903Z,96064.77
2023-02-27T04:19:04.113Z,96066.73
2023-02-27T04:21:45.809Z,96064.96
2023-02-27T04:24:38.145Z,96066.52
2023-02-27T04:27:24.366Z,96071.95
2023-02-27T04:30:11.154Z,96073.67
2023-02-27T04:32:47.861Z,96081.44
2023-02-27T04:35:17.064Z,96084.86
2023-02-27T04:38:06.835Z,96088.33
2023-02-27T04:40:44.719Z,96090.02
2023-02-27T04:43:14.429Z,96089.67
2023-02-27T04:45:44.269Z,96086.16
2023-02-27T04:48:27.985Z,96086.89
2023-02-27T04:51:02.821Z,96087.46
2023-02-27T04:53:40.590Z,96094.28
2023-02-27T04:56:15.845Z,96102.80
2023-02-27T04:58:56.553Z,96106.89
2023-02-27T05:01:30.310Z,96116.04
2023-02-27T05:04:00.366Z,96121.80
2023-02-27T05:06:32.006Z,96124.49
2023-02-27T05:09:16.321Z,96126.73
2023-02-27T05:11:45.652Z,96129.30
2023-02-27T05:14:15.009Z,96131.92
2023-02-27T05:17:03.106Z,96133.85
2023-02-27T05:19:32.186Z,96139.92
2023-02-27T05:22:23.566Z,96145.83
2023-02-27T05:24:54.041Z,96152.63
2023-02-27T05:27:32.885Z,96154.39
2023-02-27T05:30:06.118Z,96158.15
2023-02-27T05:32:47.457Z,96166.61
2023-02-27T05:35:30.101Z,96168.07
2023-02-27T05:38:09.180Z,96174.80
2023-02-27T05:40:44.717Z,96177.58
2023-02-27T05:43:26.240Z,96181.20
2023-02-27T05:46:00.224Z,96194.02
2023-02-27T05:48:32.293Z,96197.28
2023-02-27T05:50:59.642Z,96197.16
2023-02-27T05:53:33.241Z,96204.77
2023-02-27T05:56:02.756Z,96212.61
2023-02-27T05:58:40.855Z,96213.54
2023-02-27T06:01:10.325Z,96219.86
2023-02-27T06:03:39.307Z,96224.79
2023-02-27T06:06:11.146Z,96225.14
2023-02-27T06:08:37.900Z,96228.33
2023-02-27T06:11:05.314Z,96230.80
2023-02-27T06:13:32.260Z,96231.35
2023-02-27T06:15:58.939Z,96235.77
2023-02-27T06:18:25.594Z,96231.93
2023-02-27T06:20:52.367Z,96237.56
2023-02-27T06:23:19.377Z,96237.07
2023-02-27T06:25:47.479Z,96242.16
2023-02-27T06:28:14.058Z,96251.91
2023-02-27T06:30:40.845Z,96250.13
2023-02-27T06:33:07.464Z,96256.18
2023-02-27T06:35:34.101Z,96260.04
2023-02-27T06:38:00.852Z,96258.16
2023-02-27T06:40:27.508Z,96259.63
2023-02-27T06:42:54.172Z,96266.12
2023-02-27T06:45:20.818Z,96269.14
2023-02-27T06:47:47.406Z,96277.90
2023-02-27T06:50:14.018Z,96273.64
2023-02-27T06:52:41.219Z,96278.72
2023-02-27T06:55:08.821Z,96281.48
2023-02-27T06:57:35.698Z,96281.34
2023-02-27T07:00:06.368Z,96283.88
2023-02-27T07:02:33.411Z,96281.59
2023-02-27T07:05:00.491Z,96291.98
2023-02-27T07:07:37.991Z,96295.66
2023-02-27T07:10:11.195Z,96295.86
2023-02-27T07:12:38.932Z,96297.34
2023-02-27T07:15:08.154Z,96300.83
2023-02-27T07:17:36.103Z,96303.46
2023-02-27T07:20:04.879Z,96308.48
2023-02-27T07:22:32.316Z,96306.63
2023-02-27T07:24:59.386Z,96308.73
2023-02-27T07:27:26.112Z,96312.46
2023-02-27T07:29:53.467Z,96315.38
2023-02-27T07:32:20.639Z,96317.68
2023-02-27T07:34:47.563Z,96321.95
2023-02-27T07:37:14.410Z,96328.47
2023-02-27T07:39:41.251Z,96332.96
2023-02-27T07:42:08.204Z,96339.78
2023-02-27T07:44:35.139Z,96342.53
2023-02-27T07:47:02.647Z,96349.67
2023-02-27T07:49:29.558Z,96349.19
2023-02-27T07:51:56.291Z,96352.41
2023-02-27T07:54:23.554Z,96353.81
2023-02-27T07:56:50.175Z,96350.67
2023-02-27T07:59:16.870Z,96353.68
2023-02-27T08:01:43.450Z,96361.63
2023-02-27T08:04:10.445Z,96361.13
2023-02-27T08:06:37.251Z,96367.02
2023-02-27T08:09:03.908Z,96372.98
2023-02-27T08:11:30.531Z,96375.27
2023-02-27T08:14:01.860Z,96379.61
2023-02-27T08:16:30.268Z,96382.90
2023-02-27T08:18:57.605Z,96389.26
2023-02-27T08:21:25.002Z,96393.86
2023-02-27T08:23:52.000Z,96398.52
2023-02-27T08:26:18.644Z,96400.98
2023-02-27T08:28:45.440Z,96397.28
2023-02-27T08:31:12.680Z,96405.66
2023-02-27T08:33:39.751Z,96405.96
2023-02-27T08:36:07.590Z,96411.92
2023-02-27T08:38:34.389Z,96409.15
2023-02-27T08:41:01.140Z,96414.49
2023-02-27T08:43:27.768Z,96422.48
2023-02-27T08:45:54.689Z,96428.74
2023-02-27T08:48:23.807Z,96437.52
2023-02-27T08:50:51.164Z,96436.72
2023-02-27T08:53:18.118Z,96438.27
2023-02-27T08:55:48.842Z,96435.06
2023-02-27T08:58:17.137Z,96440.91
2023-02-27T09:00:45.628Z,96446.84
2023-02-27T09:03:12.748Z,96448.19
2023-02-27T09:05:40.417Z,96453.65
2023-02-27T09:08:07.102Z,96461.98
2023-02-27T09:10:34.073Z,96463.77
2023-02-27T09:13:00.675Z,96468.70
2023-02-27T09:15:27.680Z,96476.30
2023-02-27T09:17:56.053Z,96476.65
2023-02-27T09:20:22.693Z,96479.27
2023-02-27T09:22:49.452Z,96477.02
2023-02-27T09:25:16.230Z,96480.98
2023-02-27T09:27:42.814Z,96486.45
2023-02-27T09:30:10.307Z,96490.52
2023-02-27T09:32:37.562Z,96491.47
2023-02-27T09:35:04.917Z,96496.73
2023-02-27T09:37:31.732Z,96499.48
2023-02-27T09:39:58.469Z,96502.25
2023-02-27T09:42:31.997Z,96508.66
2023-02-27T09:45:05.890Z,96513.54
2023-02-27T09:47:47.502Z,96524.27
2023-02-27T09:50:38.822Z,96526.80
2023-02-27T09:53:12.186Z,96530.92
2023-02-27T09:55:41.130Z,96535.27
2023-02-27T09:58:23.708Z,96528.83
2023-02-27T10:00:57.131Z,96532.36
2023-02-27T10:03:23.899Z,96534.64
2023-02-27T10:06:19.863Z,96541.60
2023-02-27T10:09:10.266Z,96543.05
2023-02-27T10:11:42.923Z,96550.98
2023-02-27T10:14:20.029Z,96551.36
2023-02-27T10:16:50.074Z,96557.08
2023-02-27T10:19:27.010Z,96559.36
2023-02-27T10:21:56.234Z,96560.17
2023-02-27T10:24:31.855Z,96563.00
2023-02-27T10:27:02.081Z,96560.93
2023-02-27T10:29:41.313Z,96562.03
2023-02-27T10:32:26.591Z,96562.71
2023-02-27T10:35:21.374Z,96566.30
2023-02-27T10:37:52.223Z,96564.83
2023-02-27T10:40:20.316Z,96566.80
2023-02-27T10:42:48.473Z,96567.77
2023-02-27T10:45:15.987Z,96573.48
2023-02-27T10:47:43.574Z,96575.17
2023-02-27T10:50:51.505Z,96584.60
2023-02-27T10:53:25.808Z,96594.23
2023-02-27T10:56:07.599Z,96602.81
2023-02-27T10:58:36.297Z,96608.77
2023-02-27T11:01:06.557Z,96607.34
2023-02-27T11:03:40.809Z,96609.06
2023-02-27T11:06:24.679Z,96619.23
2023-02-27T11:09:12.232Z,96619.37
2023-02-27T11:11:39.234Z,96615.52
2023-02-27T11:14:27.589Z,96619.11
2023-02-27T11:16:57.508Z,96615.44
2023-02-27T11:19:34.690Z,96620.45
2023-02-27T11:22:15.668Z,96630.52
2023-02-27T11:24:42.821Z,96635.19
2023-02-27T11:27:32.268Z,96631.48
2023-02-27T11:30:06.091Z,96639.10
2023-02-27T11:32:45.233Z,96636.73
2023-02-27T11:35:32.164Z,96641.02
2023-02-27T11:38:04.922Z,96645.93
2023-02-27T11:40:35.200Z,96646.48
2023-02-27T11:43:06.389Z,96650.38
2023-02-27T11:46:21.588Z,96655.06
2023-02-27T11:48:31.834Z,96655.70
2023-02-27T11:51:20.748Z,96659.10
2023-02-27T11:54:00.317Z,96661.58
2023-02-27T11:56:36.147Z,96663.92
2023-02-27T11:59:20.946Z,96668.84
2023-02-27T12:02:23.049Z,96670.05
2023-02-27T12:05:01.936Z,96679.23
2023-02-27T12:07:40.965Z,96683.17
2023-02-27T12:10:13.637Z,96685.23
2023-02-27T12:12:40.494Z,96693.98
2023-02-27T12:15:24.101Z,96703.48
2023-02-27T12:18:10.949Z,96710.05
2023-02-27T12:20:49.900Z,96707.77
2023-02-27T12:23:23.466Z,96712.17
2023-02-27T12:25:55.625Z,96718.86
2023-02-27T12:28:28.211Z,96720.15
2023-02-27T12:31:15.331Z,96723.45
2023-02-27T12:33:54.756Z,96732.13
2023-02-27T12:36:21.811Z,96728.80
2023-02-27T12:38:48.655Z,96731.58
2023-02-27T12:41:37.336Z,96734.36
2023-02-27T12:44:24.441Z,96739.64
2023-02-27T12:47:36.647Z,96746.66
2023-02-27T12:50:15.452Z,96750.52
2023-02-27T12:53:03.718Z,96755.98
2023-02-27T12:55:40.784Z,96762.46
2023-02-27T12:58:14.579Z,96763.80
2023-02-27T13:01:13.883Z,96771.14
2023-02-27T13:03:49.016Z,96776.68
2023-02-27T13:06:24.882Z,96780.73
2023-02-27T13:09:03.912Z,96789.02
2023-02-27T13:11:57.997Z,96792.76
2023-02-27T13:14:40.309Z,96799.04
2023-02-27T13:17:16.056Z,96795.80
2023-02-27T13:19:52.519Z,96797.56
2023-02-27T13:22:29.602Z,96803.67
2023-02-27T13:25:01.569Z,96804.23
2023-02-27T13:27:33.845Z,96804.18
2023-02-27T13:30:04.677Z,96812.80
2023-02-27T13:32:46.404Z,96813.28
2023-02-27T13:35:30.544Z,96819.61
2023-02-27T13:38:04.846Z,96822.26
2023-02-27T13:40:36.794Z,96822.84
2023-02-27T13:43:51.528Z,96832.07
2023-02-27T13:46:27.846Z,96837.16
2023-02-27T13:49:03.602Z,96837.61
2023-02-27T13:51:42.331Z,96841.89
2023-02-27T13:54:15.347Z,96839.48
2023-02-27T13:56:58.937Z,96843.45
2023-02-27T13:59:40.229Z,96848.40
2023-02-27T14:02:30.357Z,96847.98
2023-02-27T14:05:02.979Z,96852.48
2023-02-27T14:07:46.613Z,96855.66
2023-02-27T14:10:21.852Z,96857.83
2023-02-27T14:12:49.212Z,96865.98
2023-02-27T14:15:22.375Z,96869.86
2023-02-27T14:18:02.454Z,96867.98
2023-02-27T14:20:39.804Z,96872.82
2023-02-27T14:23:21.644Z,96878.61
2023-02-27T14:26:01.508Z,96880.39
2023-02-27T14:28:55.248Z,96883.13
2023-02-27T14:31:26.035Z,96884.84
2023-02-27T14:33:55.364Z,96884.09
2023-02-27T14:36:25.612Z,96882.91
2023-02-27T14:38:58.369Z,96887.36
2023-02-27T14:41:40.904Z,96894.35
2023-02-27T14:44:29.730Z,96898.69
2023-02-27T14:46:58.179Z,96896.55
2023-02-27T14:49:29.022Z,96895.52
2023-02-27T14:51:56.289Z,96896.37
2023-02-27T14:54:25.733Z,96901.94
2023-02-27T14:56:57.805Z,96906.90
2023-02-27T14:59:30.495Z,96907.29
2023-02-27T15:02:01.310Z,96905.67
2023-02-27T15:04:30.830Z,96909.73
2023-02-27T15:06:59.209Z,96908.15
2023-02-27T15:09:42.235Z,96911.63
2023-02-27T15:12:15.653Z,96918.08
2023-02-27T15:14:47.635Z,96922.86
2023-02-27T15:17:20.165Z,96926.41
2023-02-27T15:19:53.053Z,96936.13
2023-02-27T15:22:38.162Z,96942.48
2023-02-27T15:25:07.296Z,96950.20
2023-02-27T15:27:36.941Z,96952.95
2023-02-27T15:30:04.643Z,96960.34
2023-02-27T15:32:40.457Z,96961.37
2023-02-27T15:35:29.659Z,96971.23
2023-02-27T15:37:59.246Z,96979.38
2023-02-27T15:40:32.610Z,96983.86
2023-02-27T15:43:00.609Z,96988.07
2023-02-27T15:45:31.659Z,96985.14
2023-02-27T15:47:58.984Z,96984.73
2023-02-27T15:50:30.746Z,96987.32
2023-02-27T15:53:13.466Z,96987.74
2023-02-27T15:55:44.099Z,96990.33
2023-02-27T15:58:32.557Z,96994.20
2023-02-27T16:01:22.964Z,96999.56
2023-02-27T16:04:02.976Z,97001.45
2023-02-27T16:06:30.268Z,97005.39
2023-02-27T16:09:06.002Z,97008.54
2023-02-27T16:11:35.094Z,97013.88
2023-02-27T16:14:02.453Z,97023.30
2023-02-27T16:16:36.915Z,97028.00
2023-02-27T16:19:29.700Z,97031.85
2023-02-27T16:22:11.010Z,97041.96
2023-02-27T16:24:37.848Z,97041.10
2023-02-27T16:27:05.229Z,97046.06
2023-02-27T16:29:44.291Z,97046.29
2023-02-27T16:32:27.886Z,97055.51
2023-02-27T16:35:21.100Z,97055.79
2023-02-27T16:37:49.713Z,97058.63
2023-02-27T16:40:19.394Z,97049.81
2023-02-27T16:42:46.564Z,97053.27
2023-02-27T16:45:26.418Z,97061.75
2023-02-27T16:47:56.404Z,97075.28
2023-02-27T16:50:38.635Z,97077.88
2023-02-27T16:53:05.579Z,97077.96
2023-02-27T16:55:33.785Z,97080.12
2023-02-27T16:58:00.688Z,97078.52
2023-02-27T17:00:27.646Z,97079.88
2023-02-27T17:02:54.284Z,97084.83
2023-02-27T17:05:22.451Z,97090.07
2023-02-27T17:07:49.189Z,97097.38
2023-02-27T17:10:18.484Z,97101.45
2023-02-27T17:12:47.494Z,97107.38
2023-02-27T17:15:14.877Z,97105.71
2023-02-27T17:17:41.818Z,97097.98
2023-02-27T17:20:10.707Z,97103.96
2023-02-27T17:22:39.380Z,97115.36
2023-02-27T17:25:07.636Z,97124.38
2023-02-27T17:27:34.912Z,97129.02
2023-02-27T17:30:01.861Z,97130.47
2023-02-27T17:32:29.099Z,97130.78
2023-02-27T17:34:58.707Z,97125.63
2023-02-27T17:37:25.650Z,97130.35
2023-02-27T17:39:52.697Z,97134.77
2023-02-27T17:42:19.448Z,97130.98
2023-02-27T17:44:47.102Z,97131.10
2023-02-27T17:47:14.878Z,97136.74
2023-02-27T17:49:41.821Z,97139.92
2023-02-27T17:52:09.080Z,97135.32
2023-02-27T17:54:36.231Z,97144.58
2023-02-27T17:57:04.383Z,97144.11
2023-02-27T17:59:31.536Z,97148.02
2023-02-27T18:01:58.682Z,97149.79
2023-02-27T18:04:25.728Z,97151.95
2023-02-27T18:06:52.886Z,97152.91
2023-02-27T18:09:19.734Z,97154.26
2023-02-27T18:11:46.557Z,97156.63
2023-02-27T18:14:13.300Z,97153.74
2023-02-27T18:16:41.916Z,97149.91
2023-02-27T18:19:08.544Z,97155.42
2023-02-27T18:21:35.116Z,97164.24
2023-02-27T18:24:02.317Z,97163.08
2023-02-27T18:26:31.615Z,97170.23
2023-02-27T18:29:01.527Z,97169.80
2023-02-27T18:31:31.883Z,97175.61
2023-02-27T18:33:59.665Z,97171.73
2023-02-27T18:36:27.569Z,97173.83
2023-02-27T18:38:54.540Z,97174.02
2023-02-27T18:41:23.937Z,97176.56
2023-02-27T18:43:50.791Z,97181.95
2023-02-27T18:46:18.150Z,97182.23
2023-02-27T18:48:46.008Z,97185.84
2023-02-27T18:51:14.965Z,97186.44
2023-02-27T18:53:43.962Z,97193.31
2023-02-27T18:56:11.980Z,97190.10
2023-02-27T18:58:39.116Z,97178.60
2023-02-27T19:01:06.893Z,97178.88
2023-02-27T19:03:35.454Z,97182.73
2023-02-27T19:06:02.864Z,97188.10
2023-02-27T19:08:29.864Z,97185.48
2023-02-27T19:10:57.936Z,97181.81
2023-02-27T19:13:25.611Z,97184.91
2023-02-27T19:15:54.862Z,97186.95
2023-02-27T19:18:21.741Z,97186.42
2023-02-27T19:20:49.195Z,97182.66
2023-02-27T19:23:15.947Z,97183.63
2023-02-27T19:25:43.090Z,97188.08
2023-02-27T19:28:11.593Z,97199.79
2023-02-27T19:30:39.236Z,97204.40
2023-02-27T19:33:06.694Z,97205.89
2023-02-27T19:35:33.659Z,97214.55
2023-02-27T19:38:00.302Z,97220.56
2023-02-27T19:40:27.540Z,97225.05
2023-02-27T19:42:54.365Z,97230.27
2023-02-27T19:45:21.112Z,97231.42
2023-02-27T19:47:47.855Z,97235.30
2023-02-27T19:50:15.709Z,97233.73
2023-02-27T19:52:42.668Z,97231.55
2023-02-27T19:55:10.016Z,97235.98
2023-02-27T19:57:37.282Z,97236.98
2023-02-27T20:00:06.367Z,97236.45
2023-02-27T20:02:40.388Z,97239.19
2023-02-27T20:05:07.833Z,97240.54
2023-02-27T20:07:34.470Z,97239.92
2023-02-27T20:10:01.141Z,97237.43
2023-02-27T20:12:28.367Z,97243.45
2023-02-27T20:14:55.300Z,97242.70
2023-02-27T20:17:21.856Z,97245.70
2023-02-27T20:19:48.582Z,97241.75
2023-02-27T20:22:16.559Z,97241.45
2023-02-27T20:24:44.213Z,97240.08
2023-02-27T20:27:11.603Z,97237.92
2023-02-27T20:29:38.516Z,97237.04
2023-02-27T20:32:05.957Z,97238.82
2023-02-27T20:34:33.032Z,97238.20
2023-02-27T20:36:59.896Z,97240.06
2023-02-27T20:39:28.041Z,97243.98
2023-02-27T20:41:54.690Z,97245.31
2023-02-27T20:44:21.278Z,97242.98
2023-02-27T20:46:49.464Z,97245.67
2023-02-27T20:49:17.662Z,97247.98
2023-02-27T20:51:44.526Z,97241.98
2023-02-27T20:54:14.838Z,97242.45
2023-02-27T20:56:42.595Z,97243.17
2023-02-27T20:59:13.804Z,97244.33
2023-02-27T21:01:42.012Z,97248.47
2023-02-27T21:04:08.870Z,97247.91
2023-02-27T21:06:35.835Z,97251.06
2023-02-27T21:09:05.607Z,97242.67
2023-02-27T21:11:33.501Z,97241.17
2023-02-27T21:14:08.529Z,97241.63
2023-02-27T21:16:36.592Z,97243.19
2023-02-27T21:19:03.537Z,97238.97
2023-02-27T21:21:32.630Z,97232.71
2023-02-27T21:24:00.025Z,97231.95
2023-02-27T21:26:30.067Z,97231.63
2023-02-27T21:29:00.738Z,97232.48
2023-02-27T21:31:30.883Z,97230.80
2023-02-27T21:34:00.277Z,97229.80
2023-02-27T21:36:29.560Z,97224.70
2023-02-27T21:38:58.414Z,97225.77
2023-02-27T21:41:26.358Z,97232.02
2023-02-27T21:44:00.532Z,97240.88
2023-02-27T21:46:28.364Z,97250.04
2023-02-27T21:48:55.203Z,97260.48
2023-02-27T21:51:38.281Z,97263.63
2023-02-27T21:54:06.699Z,97268.19
2023-02-27T21:56:33.376Z,97270.23
2023-02-27T21:59:01.456Z,97277.27
2023-02-27T22:01:29.127Z,97274.14
2023-02-27T22:03:57.009Z,97272.89
2023-02-27T22:06:26.728Z,97271.78
2023-02-27T22:08:57.749Z,97278.92
2023-02-27T22:11:26.534Z,97282.23
2023-02-27T22:13:53.878Z,97293.34
2023-02-27T22:16:21.339Z,97303.45
2023-02-27T22:18:48.792Z,97310.08
2023-02-27T22:21:19.083Z,97307.13
2023-02-27T22:23:46.878Z,97318.53
2023-02-27T22:26:27.760Z,97320.06
2023-02-27T22:28:58.698Z,97301.09
2023-02-27T22:31:31.745Z,97306.86
2023-02-27T22:34:02.335Z,97308.74
2023-02-27T22:36:31.115Z,97308.50
2023-02-27T22:38:58.522Z,97303.27
2023-02-27T22:41:31.244Z,97299.04
2023-02-27T22:43:59.538Z,97302.07
2023-02-27T22:46:47.332Z,97293.99
2023-02-27T22:49:17.492Z,97290.29
2023-02-27T22:51:46.160Z,97288.76
2023-02-27T22:54:14.936Z,97284.12
2023-02-27T22:56:41.811Z,97282.23
2023-02-27T22:59:09.524Z,97285.93
2023-02-27T23:01:37.560Z,97291.38
2023-02-27T23:04:08.185Z,97294.17
2023-02-27T23:06:38.425Z,97297.02
2023-02-27T23:09:07.371Z,97293.54
2023-02-27T23:11:34.036Z,97293.63
2023-02-27T23:14:00.750Z,97289.89
2023-02-27T23:16:27.440Z,97290.89
2023-02-27T23:18:57.012Z,97292.59
2023-02-27T23:21:33.624Z,97294.89
2023-02-27T23:24:11.561Z,97291.71
2023-02-27T23:26:42.217Z,97293.19
2023-02-27T23:29:09.640Z,97295.83
2023-02-27T23:31:37.614Z,97300.05
2023-02-27T23:34:05.556Z,97300.06
2023-02-27T23:36:34.628Z,97297.82
2023-02-27T23:39:02.893Z,97304.73
2023-02-27T23:41:30.590Z,97303.00
2023-02-27T23:43:57.315Z,97309.69
2023-02-27T23:46:23.807Z,97308.61
2023-02-27T23:48:50.450Z,97313.27
2023-02-27T23:51:17.002Z,97316.60
2023-02-27T23:53:43.953Z,97317.92
2023-02-27T23:56:23.161Z,97317.07
2023-02-27T23:58:59.381Z,97322.56
